Time;durP1;ratioP1;P1;durP2;ratioP2;P2;SDS_P1;SDS_P2;PMS_P1;PMS_P2;Temp;Humidity;BMP_temperature;BMP_pressure;BME280_temperature;BME280_humidity;BME280_pressure;Samples;Min_cycle;Max_cycle;Signal;HPM_P1;HPM_P2
2022/06/20 00:01:10;;;;;;;;;;;21.40;60.50;;;;;;5042835;28;88165;-44
2022/06/20 00:03:37;;;;;;;;;;;21.40;60.40;;;;;;5043201;28;87076;-45
2022/06/20 00:06:03;;;;;;;;;;;21.40;60.40;;;;;;5042616;28;88766;-45
2022/06/20 00:08:29;;;;;;;;;;;21.40;60.40;;;;;;5042740;28;88043;-44
2022/06/20 00:10:54;;;;;;;;;;;21.40;60.50;;;;;;5042769;28;87372;-44
2022/06/20 00:13:28;;;;;;;;;;;21.40;60.50;;;;;;5045324;28;87520;-44
2022/06/20 00:15:56;;;;;;;;;;;21.30;60.40;;;;;;5043249;28;86402;-44
2022/06/20 00:18:22;;;;;;;;;;;21.40;60.50;;;;;;5042259;27;87996;-44
2022/06/20 00:20:48;;;;;;;;;;;21.40;60.40;;;;;;5042553;28;88076;-44
2022/06/20 00:23:13;;;;;;;;;;;21.30;60.40;;;;;;5042067;28;87917;-44
2022/06/20 00:25:39;;;;;;;;;;;21.30;60.40;;;;;;5042934;28;88021;-44
2022/06/20 00:28:05;;;;;;;;;;;21.30;60.40;;;;;;5042327;28;87967;-44
2022/06/20 00:30:31;;;;;;;;;;;21.30;60.30;;;;;;5042689;28;87017;-44
2022/06/20 00:32:56;;;;;;;;;;;21.30;60.30;;;;;;5042840;27;87328;-44
2022/06/20 00:35:22;;;;;;;;;;;21.20;60.30;;;;;;5045222;28;88183;-44
2022/06/20 00:37:48;;;;;;;;;;;21.20;60.40;;;;;;5042838;27;87329;-44
2022/06/20 00:40:32;;;;;;;;;;;21.20;60.40;;;;;;5042542;28;88532;-44
2022/06/20 00:42:58;;;;;;;;;;;21.20;60.40;;;;;;5042555;27;87217;-45
2022/06/20 00:45:26;;;;;;;;;;;21.20;60.40;;;;;;5042641;28;86958;-44
2022/06/20 00:47:55;;;;;;;;;;;21.10;60.30;;;;;;5041128;28;88954;-45
2022/06/20 00:50:23;;;;;;;;;;;21.10;60.30;;;;;;5042064;28;87184;-44
2022/06/20 00:53:07;;;;;;;;;;;21.10;60.20;;;;;;5042441;28;87535;-44
2022/06/20 00:55:37;;;;;;;;;;;21.10;60.30;;;;;;5042147;27;87959;-45
2022/06/20 00:58:06;;;;;;;;;;;21.10;60.30;;;;;;5045203;28;87195;-44
2022/06/20 01:00:33;;;;;;;;;;;21.10;60.30;;;;;;5041890;28;87188;-44
2022/06/20 01:03:02;;;;;;;;;;;21.10;60.30;;;;;;5042039;28;87179;-44
2022/06/20 01:05:32;;;;;;;;;;;21.00;60.30;;;;;;5042574;27;86957;-45
2022/06/20 01:08:07;;;;;;;;;;;21.00;60.30;;;;;;5041673;28;89421;-44
2022/06/20 01:10:37;;;;;;;;;;;21.00;60.30;;;;;;5041997;28;86953;-44
2022/06/20 01:13:04;;;;;;;;;;;21.00;60.30;;;;;;5040594;27;88012;-45
2022/06/20 01:15:35;;;;;;;;;;;20.90;60.20;;;;;;5041610;28;88047;-44
2022/06/20 01:18:02;;;;;;;;;;;20.90;60.20;;;;;;5042047;28;87120;-44
2022/06/20 01:20:30;;;;;;;;;;;20.90;60.50;;;;;;5044332;27;88612;-44
2022/06/20 01:23:03;;;;;;;;;;;20.90;60.20;;;;;;5042076;28;87362;-44
2022/06/20 01:25:31;;;;;;;;;;;20.90;60.40;;;;;;5041571;28;88789;-45
2022/06/20 01:27:59;;;;;;;;;;;20.80;60.20;;;;;;5041625;28;88047;-46
2022/06/20 01:30:26;;;;;;;;;;;20.90;61.00;;;;;;5043961;27;86403;-44
2022/06/20 01:32:52;;;;;;;;;;;20.80;60.30;;;;;;5045281;27;87237;-44
2022/06/20 01:37:23;;;;;;;;;;;20.80;60.30;;;;;;5044854;28;88230;-44
2022/06/20 01:38:07;;;;;;;;;;;20.80;60.40;;;;;;5044504;28;87974;-44
2022/06/20 01:40:33;;;;;;;;;;;20.70;60.40;;;;;;5047771;27;88317;-44
2022/06/20 01:42:59;;;;;;;;;;;20.70;60.40;;;;;;5045276;28;87159;-44
2022/06/20 01:48:12;;;;;;;;;;;20.70;60.50;;;;;;5044988;28;87322;-44
2022/06/20 01:50:39;;;;;;;;;;;20.60;60.50;;;;;;5044765;28;87003;-44
2022/06/20 01:53:06;;;;;;;;;;;20.60;60.40;;;;;;5045251;27;87399;-44
2022/06/20 01:55:33;;;;;;;;;;;20.60;60.40;;;;;;5045211;28;87618;-44
2022/06/20 01:58:04;;;;;;;;;;;20.60;60.30;;;;;;5044999;28;87094;-44
2022/06/20 02:00:30;;;;;;;;;;;20.60;60.40;;;;;;5045099;28;87486;-44
2022/06/20 02:02:57;;;;;;;;;;;20.60;60.40;;;;;;5047132;28;88176;-45
2022/06/20 02:05:26;;;;;;;;;;;20.50;60.50;;;;;;5044704;28;88609;-44
2022/06/20 02:07:52;;;;;;;;;;;20.50;60.40;;;;;;5044431;28;87728;-44
2022/06/20 02:10:21;;;;;;;;;;;20.60;60.40;;;;;;5044945;28;87076;-44
2022/06/20 02:12:47;;;;;;;;;;;20.50;60.50;;;;;;5044223;27;86986;-44
2022/06/20 02:15:19;;;;;;;;;;;20.50;60.50;;;;;;5044361;28;88161;-44
2022/06/20 02:17:46;;;;;;;;;;;20.50;60.30;;;;;;5044328;28;87042;-45
2022/06/20 02:20:15;;;;;;;;;;;20.50;60.50;;;;;;5045277;28;87212;-45
2022/06/20 02:22:40;;;;;;;;;;;20.40;60.40;;;;;;5044268;28;87625;-44
2022/06/20 02:25:09;;;;;;;;;;;20.40;60.40;;;;;;5047567;28;87136;-45
2022/06/20 02:27:43;;;;;;;;;;;20.40;60.30;;;;;;5043342;28;90254;-44
2022/06/20 02:30:10;;;;;;;;;;;20.40;60.50;;;;;;5044711;28;87164;-44
2022/06/20 02:32:37;;;;;;;;;;;20.30;60.40;;;;;;5044584;28;87622;-44
2022/06/20 02:35:03;;;;;;;;;;;20.30;60.50;;;;;;5044087;28;88031;-44
2022/06/20 02:37:29;;;;;;;;;;;20.30;60.50;;;;;;5044183;28;87452;-44
2022/06/20 02:39:57;;;;;;;;;;;20.30;60.50;;;;;;5044576;27;87245;-44
2022/06/20 02:42:26;;;;;;;;;;;20.30;60.80;;;;;;5043322;27;87603;-44
2022/06/20 02:44:52;;;;;;;;;;;20.30;60.50;;;;;;5044453;28;86961;-45
2022/06/20 02:47:18;;;;;;;;;;;20.20;60.60;;;;;;5046874;27;87227;-44
2022/06/20 02:49:44;;;;;;;;;;;20.20;60.60;;;;;;5044069;28;86909;-44
2022/06/20 02:52:14;;;;;;;;;;;20.20;60.50;;;;;;5043790;28;87747;-44
2022/06/20 02:54:40;;;;;;;;;;;20.20;60.50;;;;;;5043557;28;87985;-44
2022/06/20 02:57:18;;;;;;;;;;;20.10;60.60;;;;;;5044021;28;87161;-44
2022/06/20 03:00:03;;;;;;;;;;;20.10;60.40;;;;;;5043931;27;87417;-44
2022/06/20 03:02:32;;;;;;;;;;;20.10;60.60;;;;;;5043776;28;88135;-44
2022/06/20 03:04:58;;;;;;;;;;;20.10;60.60;;;;;;5044163;28;87085;-44
2022/06/20 03:07:25;;;;;;;;;;;20.10;60.60;;;;;;5043891;27;87950;-45
2022/06/20 03:09:56;;;;;;;;;;;20.00;60.50;;;;;;5046836;28;87442;-44
2022/06/20 03:12:21;;;;;;;;;;;20.00;60.50;;;;;;5043405;27;86999;-45
2022/06/20 03:14:55;;;;;;;;;;;20.00;60.70;;;;;;5043480;28;88585;-44
2022/06/20 03:17:22;;;;;;;;;;;20.00;60.70;;;;;;5042812;28;88092;-44
2022/06/20 03:19:49;;;;;;;;;;;19.90;60.70;;;;;;5043515;27;89792;-44
2022/06/20 03:22:16;;;;;;;;;;;19.90;60.60;;;;;;5043359;28;87971;-44
2022/06/20 03:24:42;;;;;;;;;;;19.90;60.60;;;;;;5043219;28;87052;-44
2022/06/20 03:27:10;;;;;;;;;;;19.90;60.60;;;;;;5043823;27;87329;-45
2022/06/20 03:29:37;;;;;;;;;;;19.90;60.70;;;;;;5043126;28;87972;-44
2022/06/20 03:32:03;;;;;;;;;;;19.90;60.70;;;;;;5046513;28;87199;-44
2022/06/20 03:34:29;;;;;;;;;;;19.90;60.60;;;;;;5043771;28;87232;-44
2022/06/20 03:36:54;;;;;;;;;;;19.80;60.60;;;;;;5043633;28;87125;-44
2022/06/20 03:39:21;;;;;;;;;;;19.90;60.70;;;;;;5043306;28;87277;-44
2022/06/20 03:41:47;;;;;;;;;;;19.80;60.60;;;;;;5042511;28;89048;-45
2022/06/20 03:44:19;;;;;;;;;;;19.80;60.60;;;;;;5043363;28;87096;-44
2022/06/20 03:47:08;;;;;;;;;;;19.80;60.70;;;;;;5043121;27;88807;-44
2022/06/20 03:49:36;;;;;;;;;;;19.80;60.70;;;;;;5036945;28;87784;-44
2022/06/20 03:52:12;;;;;;;;;;;19.70;60.70;;;;;;5046438;28;86853;-45
2022/06/20 03:54:38;;;;;;;;;;;19.80;60.70;;;;;;5041961;27;87877;-44
2022/06/20 03:57:17;;;;;;;;;;;19.70;60.80;;;;;;5043324;28;87153;-44
2022/06/20 03:59:45;;;;;;;;;;;19.70;60.80;;;;;;5043433;27;88743;-44
2022/06/20 04:02:18;;;;;;;;;;;19.70;60.90;;;;;;5042760;28;87862;-44
2022/06/20 04:04:53;;;;;;;;;;;19.60;60.80;;;;;;5042968;28;86948;-44
2022/06/20 04:07:21;;;;;;;;;;;19.60;60.90;;;;;;5042731;28;87862;-44
2022/06/20 04:12:58;;;;;;;;;;;19.70;60.80;;;;;;5040441;28;88482;-44
2022/06/20 04:15:27;;;;;;;;;;;19.60;60.70;;;;;;5045265;27;87369;-44
2022/06/20 04:18:28;;;;;;;;;;;19.60;60.80;;;;;;5042869;28;87175;-44
2022/06/20 04:21:06;;;;;;;;;;;19.60;60.70;;;;;;5040180;28;88851;-44
2022/06/20 04:23:34;;;;;;;;;;;19.60;60.80;;;;;;5042558;28;88179;-44
2022/06/20 04:26:00;;;;;;;;;;;19.50;60.80;;;;;;5043372;28;86388;-44
2022/06/20 04:28:34;;;;;;;;;;;19.50;61.00;;;;;;5042837;28;87033;-44
2022/06/20 04:31:04;;;;;;;;;;;19.50;61.50;;;;;;5042587;28;88093;-44
2022/06/20 04:33:33;;;;;;;;;;;19.50;61.00;;;;;;5041978;28;88523;-45
2022/06/20 04:36:31;;;;;;;;;;;19.50;61.00;;;;;;5042408;27;88214;-44
2022/06/20 04:38:59;;;;;;;;;;;19.50;61.00;;;;;;5020930;28;89612;-44
2022/06/20 04:41:36;;;;;;;;;;;19.50;61.00;;;;;;5042682;27;87223;-44
2022/06/20 04:44:09;;;;;;;;;;;19.40;60.90;;;;;;5041717;28;88801;-44
2022/06/20 04:46:42;;;;;;;;;;;19.50;61.10;;;;;;5042612;28;86987;-44
2022/06/20 04:49:12;;;;;;;;;;;19.40;61.00;;;;;;5042503;27;86998;-44
2022/06/20 04:51:39;;;;;;;;;;;19.40;61.00;;;;;;5042661;28;86422;-44
2022/06/20 04:54:05;;;;;;;;;;;19.40;61.20;;;;;;5042173;28;87126;-44
2022/06/20 04:56:31;;;;;;;;;;;19.40;61.10;;;;;;5042480;27;87384;-44
2022/06/20 04:59:00;;;;;;;;;;;19.40;61.00;;;;;;5041274;28;88195;-44
2022/06/20 05:01:26;;;;;;;;;;;19.40;60.90;;;;;;5045305;28;87324;-44
2022/06/20 05:03:58;;;;;;;;;;;19.40;61.00;;;;;;5041530;28;89439;-44
2022/06/20 05:06:28;;;;;;;;;;;19.40;61.10;;;;;;5045273;27;86989;-45
2022/06/20 05:08:55;;;;;;;;;;;19.50;61.10;;;;;;5045658;28;88811;-44
2022/06/20 05:11:24;;;;;;;;;;;19.40;61.00;;;;;;5044443;28;87852;-44
2022/06/20 05:14:03;;;;;;;;;;;19.40;61.10;;;;;;5045583;28;87015;-44
2022/06/20 05:16:34;;;;;;;;;;;19.40;61.10;;;;;;5045931;27;87404;-45
2022/06/20 05:19:02;;;;;;;;;;;19.40;61.20;;;;;;5045204;28;87976;-44
2022/06/20 05:21:32;;;;;;;;;;;19.40;61.20;;;;;;5045691;28;87077;-44
2022/06/20 05:23:59;;;;;;;;;;;19.40;61.10;;;;;;5047298;28;89006;-44
2022/06/20 05:26:30;;;;;;;;;;;19.50;61.20;;;;;;5045680;28;87193;-45
2022/06/20 05:28:57;;;;;;;;;;;19.40;61.10;;;;;;5045587;27;87231;-44
2022/06/20 05:31:29;;;;;;;;;;;19.50;61.20;;;;;;5045059;28;88095;-44
2022/06/20 05:34:02;;;;;;;;;;;19.50;61.30;;;;;;5045495;28;87052;-45
2022/06/20 05:36:36;;;;;;;;;;;19.50;61.20;;;;;;5045091;28;87640;-44
2022/06/20 05:39:05;;;;;;;;;;;19.50;61.20;;;;;;5045056;28;88085;-44
2022/06/20 05:41:31;;;;;;;;;;;19.50;61.30;;;;;;5045519;28;86412;-45
2022/06/20 05:43:56;;;;;;;;;;;19.50;61.30;;;;;;5045413;27;86822;-44
2022/06/20 05:46:24;;;;;;;;;;;19.50;61.30;;;;;;5047858;28;88227;-44
2022/06/20 05:48:51;;;;;;;;;;;19.50;61.30;;;;;;5044210;27;88780;-44
2022/06/20 05:51:18;;;;;;;;;;;19.50;61.20;;;;;;5044782;28;88161;-45
2022/06/20 05:53:44;;;;;;;;;;;19.60;61.30;;;;;;5045100;28;87086;-44
2022/06/20 05:56:30;;;;;;;;;;;19.60;61.30;;;;;;5045256;28;87401;-45
2022/06/20 05:58:55;;;;;;;;;;;19.50;61.30;;;;;;5044864;27;87945;-44
2022/06/20 06:01:34;;;;;;;;;;;19.60;61.40;;;;;;5044698;28;87219;-45
2022/06/20 06:04:16;;;;;;;;;;;19.60;61.40;;;;;;5045028;28;87609;-44
2022/06/20 06:06:47;;;;;;;;;;;19.60;61.30;;;;;;5047915;28;86461;-44
2022/06/20 06:09:23;;;;;;;;;;;19.60;61.40;;;;;;5045026;27;86995;-45
2022/06/20 06:11:57;;;;;;;;;;;19.50;61.40;;;;;;5043592;28;88124;-44
2022/06/20 06:14:29;;;;;;;;;;;19.50;61.40;;;;;;5043832;28;88044;-45
2022/06/20 06:17:14;;;;;;;;;;;19.60;61.40;;;;;;5043851;27;86990;-44
2022/06/20 06:19:40;;;;;;;;;;;19.60;61.50;;;;;;5044524;27;87290;-44
2022/06/20 06:22:26;;;;;;;;;;;19.50;61.50;;;;;;5045026;28;87185;-44
2022/06/20 06:24:55;;;;;;;;;;;19.50;61.60;;;;;;5036177;28;88899;-44
2022/06/20 06:27:23;;;;;;;;;;;19.60;61.50;;;;;;5044166;28;88038;-44
2022/06/20 06:29:55;;;;;;;;;;;19.60;61.60;;;;;;5047410;28;87117;-44
2022/06/20 06:32:25;;;;;;;;;;;19.60;61.50;;;;;;5044549;28;87455;-44
2022/06/20 06:34:57;;;;;;;;;;;19.60;61.70;;;;;;5044295;28;87108;-44
2022/06/20 06:37:43;;;;;;;;;;;19.60;61.80;;;;;;5044608;28;86964;-44
2022/06/20 06:40:34;;;;;;;;;;;19.60;61.60;;;;;;5034930;28;89085;-44
2022/06/20 06:43:02;;;;;;;;;;;19.60;61.60;;;;;;5041749;28;87008;-45
2022/06/20 06:45:30;;;;;;;;;;;19.60;61.60;;;;;;5044302;27;87440;-44
2022/06/20 06:48:09;;;;;;;;;;;19.60;61.60;;;;;;5043756;28;87925;-44
2022/06/20 06:50:34;;;;;;;;;;;19.60;61.60;;;;;;5043930;28;87079;-44
2022/06/20 06:53:03;;;;;;;;;;;19.60;61.70;;;;;;5046980;28;87462;-44
2022/06/20 06:55:54;;;;;;;;;;;19.60;61.60;;;;;;5044089;28;87110;-44
2022/06/20 06:58:25;;;;;;;;;;;19.60;61.70;;;;;;5042244;28;87573;-44
2022/06/20 07:00:54;;;;;;;;;;;19.60;61.70;;;;;;5043699;28;88354;-45
2022/06/20 07:03:23;;;;;;;;;;;19.60;61.80;;;;;;5043772;28;87174;-44
2022/06/20 07:05:51;;;;;;;;;;;19.60;61.90;;;;;;5043461;28;87992;-44
2022/06/20 07:08:26;;;;;;;;;;;19.60;61.80;;;;;;5043441;28;88106;-44
2022/06/20 07:11:03;;;;;;;;;;;19.60;61.80;;;;;;5043813;28;87076;-44
2022/06/20 07:13:47;;;;;;;;;;;19.60;61.80;;;;;;5043686;28;88480;-44
2022/06/20 07:16:23;;;;;;;;;;;19.70;61.90;;;;;;5046324;27;88984;-44
2022/06/20 07:18:51;;;;;;;;;;;19.60;61.80;;;;;;5043444;27;87213;-44
2022/06/20 07:21:18;;;;;;;;;;;19.70;61.80;;;;;;5043567;28;88462;-45
2022/06/20 07:23:45;;;;;;;;;;;19.70;61.70;;;;;;5044226;28;87177;-45
2022/06/20 07:26:13;;;;;;;;;;;19.70;61.70;;;;;;5043904;28;87093;-44
2022/06/20 07:28:41;;;;;;;;;;;19.70;61.90;;;;;;5043093;27;87215;-44
2022/06/20 07:31:22;;;;;;;;;;;19.60;61.80;;;;;;5042957;28;87975;-45
2022/06/20 07:33:56;;;;;;;;;;;19.70;61.90;;;;;;5043505;28;88354;-44
2022/06/20 07:36:25;;;;;;;;;;;19.70;61.80;;;;;;5042894;28;89482;-44
2022/06/20 07:39:26;;;;;;;;;;;19.70;61.80;;;;;;5046288;28;87188;-44
2022/06/20 07:41:58;;;;;;;;;;;19.70;61.80;;;;;;4999942;28;88413;-45
2022/06/20 07:44:29;;;;;;;;;;;19.70;61.80;;;;;;5035834;28;87177;-44
2022/06/20 07:47:05;;;;;;;;;;;19.70;61.80;;;;;;5043495;28;87463;-45
2022/06/20 07:49:39;;;;;;;;;;;19.70;61.70;;;;;;5043817;28;87406;-45
2022/06/20 07:52:10;;;;;;;;;;;19.70;61.80;;;;;;5043313;28;86835;-45
2022/06/20 07:54:44;;;;;;;;;;;19.70;61.70;;;;;;5043106;27;87410;-44
2022/06/20 07:57:14;;;;;;;;;;;19.70;61.70;;;;;;5042083;28;88656;-44
2022/06/20 07:59:46;;;;;;;;;;;19.70;61.80;;;;;;5042973;28;87023;-44
2022/06/20 08:02:20;;;;;;;;;;;19.70;61.90;;;;;;5045732;27;87480;-44
2022/06/20 08:04:46;;;;;;;;;;;19.80;61.90;;;;;;5042775;28;87139;-44
2022/06/20 08:07:12;;;;;;;;;;;19.80;61.90;;;;;;5041667;28;90482;-44
2022/06/20 08:09:44;;;;;;;;;;;19.80;61.80;;;;;;5042532;28;88187;-44
2022/06/20 08:12:18;;;;;;;;;;;19.80;61.90;;;;;;5042204;28;87168;-44
2022/06/20 08:15:11;;;;;;;;;;;19.80;61.80;;;;;;5043637;28;87511;-44
2022/06/20 08:17:37;;;;;;;;;;;19.80;61.80;;;;;;5041044;28;86996;-45
2022/06/20 08:20:03;;;;;;;;;;;19.80;61.80;;;;;;5043073;28;87130;-44
2022/06/20 08:22:39;;;;;;;;;;;19.80;61.80;;;;;;5044855;27;88581;-44
2022/06/20 08:25:07;;;;;;;;;;;19.80;61.80;;;;;;5042878;28;86985;-44
2022/06/20 08:27:43;;;;;;;;;;;19.80;61.80;;;;;;5042848;28;87476;-45
2022/06/20 08:30:12;;;;;;;;;;;19.80;61.80;;;;;;5041984;28;90065;-44
2022/06/20 08:32:46;;;;;;;;;;;19.80;61.80;;;;;;5042549;28;86857;-45
2022/06/20 08:35:19;;;;;;;;;;;19.80;61.80;;;;;;5042538;28;87081;-45
2022/06/20 08:37:49;;;;;;;;;;;19.90;61.80;;;;;;5042402;28;88148;-44
2022/06/20 08:40:33;;;;;;;;;;;19.90;61.80;;;;;;5042143;28;86788;-44
2022/06/20 08:43:11;;;;;;;;;;;19.90;61.80;;;;;;5042770;27;86906;-45
2022/06/20 08:45:55;;;;;;;;;;;19.90;62.00;;;;;;5045489;28;87980;-44
2022/06/20 08:48:32;;;;;;;;;;;19.90;62.00;;;;;;5042091;27;87800;-44
2022/06/20 08:51:07;;;;;;;;;;;19.80;62.00;;;;;;5041997;28;87852;-44
2022/06/20 08:53:51;;;;;;;;;;;19.90;62.60;;;;;;5042619;28;87054;-44
2022/06/20 08:56:16;;;;;;;;;;;19.80;62.00;;;;;;5042451;27;87364;-44
2022/06/20 08:58:42;;;;;;;;;;;19.80;62.10;;;;;;5042149;28;88243;-44
2022/06/20 09:01:11;;;;;;;;;;;19.90;62.10;;;;;;5042449;28;87103;-44
2022/06/20 09:03:54;;;;;;;;;;;19.90;62.10;;;;;;5042474;28;87605;-44
2022/06/20 09:06:22;;;;;;;;;;;19.90;62.00;;;;;;5042720;28;87279;-44
2022/06/20 09:08:51;;;;;;;;;;;20.00;62.00;;;;;;5044968;28;87014;-45
2022/06/20 09:11:22;;;;;;;;;;;20.00;61.90;;;;;;5041620;28;88174;-44
2022/06/20 09:13:55;;;;;;;;;;;20.00;62.00;;;;;;5041405;28;87957;-44
2022/06/20 09:16:29;;;;;;;;;;;20.00;62.80;;;;;;5042386;27;89863;-44
2022/06/20 09:19:33;;;;;;;;;;;19.90;63.30;;;;;;5041862;28;88029;-45
2022/06/20 09:22:08;;;;;;;;;;;19.90;62.90;;;;;;4999490;28;87037;-44
2022/06/20 09:24:33;;;;;;;;;;;20.00;63.90;;;;;;4999826;28;87364;-45
2022/06/20 09:27:02;;;;;;;;;;;19.90;63.60;;;;;;5021222;28;87973;-44
2022/06/20 09:29:39;;;;;;;;;;;20.10;63.40;;;;;;5042279;28;87213;-45
2022/06/20 09:32:23;;;;;;;;;;;20.10;63.00;;;;;;5045277;28;87323;-45
2022/06/20 09:34:49;;;;;;;;;;;20.10;62.70;;;;;;5041711;27;87089;-44
2022/06/20 09:37:14;;;;;;;;;;;20.20;62.50;;;;;;5041811;28;87645;-45
2022/06/20 09:39:55;;;;;;;;;;;20.20;62.50;;;;;;5041003;28;88099;-45
2022/06/20 09:42:32;;;;;;;;;;;20.20;62.50;;;;;;5042156;28;86962;-45
2022/06/20 09:45:21;;;;;;;;;;;20.20;62.40;;;;;;5042146;27;87434;-44
2022/06/20 09:47:50;;;;;;;;;;;20.20;62.50;;;;;;5035418;28;87925;-45
2022/06/20 09:50:20;;;;;;;;;;;20.30;62.50;;;;;;5157436;22;88232;-36
2022/06/20 09:52:46;;;;;;;;;;;20.30;62.50;;;;;;5023805;28;87476;-36
2022/06/20 09:55:14;;;;;;;;;;;20.30;62.40;;;;;;5027662;28;87125;-36
2022/06/20 09:57:58;;;;;;;;;;;20.30;62.40;;;;;;5025280;28;87377;-36
2022/06/20 10:00:29;;;;;;;;;;;20.40;62.40;;;;;;5024769;28;87993;-36
2022/06/20 10:02:58;;;;;;;;;;;20.40;62.30;;;;;;5024927;28;87083;-35
2022/06/20 10:05:42;;;;;;;;;;;20.40;62.30;;;;;;5024005;28;88970;-36
2022/06/20 10:08:08;;;;;;;;;;;20.40;62.40;;;;;;5024704;28;87784;-36
2022/06/20 10:10:39;;;;;;;;;;;20.50;62.30;;;;;;5024758;28;87211;-36
2022/06/20 10:13:10;;;;;;;;;;;20.50;62.30;;;;;;5024831;28;87329;-36
2022/06/20 10:15:36;;;;;;;;;;;20.50;62.30;;;;;;5024288;28;87497;-36
2022/06/20 10:18:02;;;;;;;;;;;20.50;62.20;;;;;;5027728;28;86976;-36
2022/06/20 10:20:33;;;;;;;;;;;20.50;62.20;;;;;;5024349;28;87942;-36
2022/06/20 10:23:07;;;;;;;;;;;20.60;62.20;;;;;;5025155;28;86844;-36
2022/06/20 10:25:51;;;;;;;;;;;20.50;62.10;;;;;;5024745;28;86966;-36
2022/06/20 10:28:23;;;;;;;;;;;20.50;62.20;;;;;;5024200;28;88154;-36
2022/06/20 10:30:54;;;;;;;;;;;20.50;62.60;;;;;;5024004;28;87992;-36
2022/06/20 10:33:19;;;;;;;;;;;20.60;62.30;;;;;;5024188;28;88545;-36
2022/06/20 10:35:50;;;;;;;;;;;20.60;62.30;;;;;;5024139;28;88094;-36
2022/06/20 10:38:28;;;;;;;;;;;20.60;62.20;;;;;;5027463;28;87050;-36
2022/06/20 10:41:00;;;;;;;;;;;20.60;62.10;;;;;;5024176;28;87271;-36
2022/06/20 10:43:25;;;;;;;;;;;20.60;62.00;;;;;;5024203;28;87147;-36
2022/06/20 10:46:10;;;;;;;;;;;20.70;62.10;;;;;;5024282;28;87167;-36
2022/06/20 10:48:54;;;;;;;;;;;20.70;62.10;;;;;;5024409;28;87281;-36
2022/06/20 10:51:30;;;;;;;;;;;20.70;62.00;;;;;;5004405;28;87007;-36
2022/06/20 10:53:55;;;;;;;;;;;20.70;61.90;;;;;;5004384;28;87446;-36
2022/06/20 10:56:27;;;;;;;;;;;20.80;61.90;;;;;;5002716;28;89522;-36
2022/06/20 10:58:52;;;;;;;;;;;20.70;61.90;;;;;;5003830;28;87061;-36
2022/06/20 11:01:23;;;;;;;;;;;20.80;61.90;;;;;;5006597;28;87349;-36
2022/06/20 11:04:00;;;;;;;;;;;20.80;61.80;;;;;;5003296;28;87186;-36
2022/06/20 11:06:46;;;;;;;;;;;20.80;61.80;;;;;;5004020;28;87442;-36
2022/06/20 11:09:24;;;;;;;;;;;20.80;61.80;;;;;;5003215;28;88328;-36
2022/06/20 11:11:58;;;;;;;;;;;20.80;61.70;;;;;;5004097;28;86828;-36
2022/06/20 11:14:35;;;;;;;;;;;20.90;61.60;;;;;;5004172;28;88776;-36
2022/06/20 11:17:03;;;;;;;;;;;20.90;61.60;;;;;;5003527;28;87977;-36
2022/06/20 11:19:31;;;;;;;;;;;20.90;61.50;;;;;;5003812;28;87109;-36
2022/06/20 11:21:57;;;;;;;;;;;20.90;61.60;;;;;;5003250;28;87812;-36
2022/06/20 11:24:44;;;;;;;;;;;20.90;61.50;;;;;;5006245;28;87120;-36
2022/06/20 11:27:14;;;;;;;;;;;20.90;61.50;;;;;;5003912;28;87595;-36
2022/06/20 11:29:42;;;;;;;;;;;21.00;61.50;;;;;;5003114;28;88044;-35
2022/06/20 11:32:11;;;;;;;;;;;21.00;61.40;;;;;;5003423;28;87214;-36
2022/06/20 11:34:36;;;;;;;;;;;21.00;61.40;;;;;;5003463;28;87521;-36
2022/06/20 11:37:22;;;;;;;;;;;21.00;61.40;;;;;;5002990;28;88277;-36
2022/06/20 11:40:00;;;;;;;;;;;21.00;61.40;;;;;;5003175;28;86511;-36
2022/06/20 11:42:31;;;;;;;;;;;21.10;61.30;;;;;;5003244;28;87196;-36
2022/06/20 11:45:06;;;;;;;;;;;21.10;61.20;;;;;;5002999;28;88034;-36
2022/06/20 11:47:50;;;;;;;;;;;21.10;61.10;;;;;;5005696;28;88055;-36
2022/06/20 11:50:26;;;;;;;;;;;21.10;61.10;;;;;;5002687;28;88111;-36
2022/06/20 11:52:55;;;;;;;;;;;21.10;61.10;;;;;;5002908;28;87266;-36
2022/06/20 11:55:23;;;;;;;;;;;21.20;61.10;;;;;;5018375;28;87903;-36
2022/06/20 11:57:49;;;;;;;;;;;21.20;61.00;;;;;;5002812;28;87984;-36
2022/06/20 12:00:18;;;;;;;;;;;21.20;60.90;;;;;;5003191;28;87130;-36
2022/06/20 12:03:02;;;;;;;;;;;21.20;61.50;;;;;;5003215;28;87371;-36
2022/06/20 12:05:43;;;;;;;;;;;21.20;60.90;;;;;;5003232;28;87293;-36
2022/06/20 12:08:15;;;;;;;;;;;21.30;61.00;;;;;;5003016;28;87061;-36
2022/06/20 12:10:43;;;;;;;;;;;21.30;60.90;;;;;;5005380;28;88753;-36
2022/06/20 12:13:27;;;;;;;;;;;21.30;61.00;;;;;;5002005;28;88257;-36
2022/06/20 12:15:55;;;;;;;;;;;21.30;60.90;;;;;;5002010;28;88465;-36
2022/06/20 12:18:41;;;;;;;;;;;21.30;60.90;;;;;;5002292;28;89364;-36
2022/06/20 12:23:56;;;;;;;;;;;21.40;60.70;;;;;;5002835;28;87185;-36
2022/06/20 12:26:42;;;;;;;;;;;21.40;60.80;;;;;;5002106;28;89466;-36
2022/06/20 12:29:19;;;;;;;;;;;21.40;60.70;;;;;;5017400;28;86859;-36
2022/06/20 12:31:48;;;;;;;;;;;21.40;60.70;;;;;;5005639;28;87316;-36
2022/06/20 12:34:16;;;;;;;;;;;21.50;60.70;;;;;;5018068;28;87129;-36
2022/06/20 12:36:47;;;;;;;;;;;21.50;60.70;;;;;;5002278;28;87577;-36
2022/06/20 12:39:16;;;;;;;;;;;21.50;60.60;;;;;;5001531;28;89124;-36
2022/06/20 12:41:48;;;;;;;;;;;21.60;60.50;;;;;;5002537;28;87126;-36
2022/06/20 12:44:32;;;;;;;;;;;21.60;60.50;;;;;;5002677;28;87516;-36
2022/06/20 12:47:04;;;;;;;;;;;21.60;60.80;;;;;;5001952;28;89456;-36
2022/06/20 12:49:39;;;;;;;;;;;21.60;60.30;;;;;;5002029;28;87314;-36
2022/06/20 12:52:13;;;;;;;;;;;21.60;60.20;;;;;;5002432;28;87485;-36
2022/06/20 12:54:45;;;;;;;;;;;21.70;60.30;;;;;;5005009;28;88006;-36
2022/06/20 12:57:39;;;;;;;;;;;21.70;60.30;;;;;;5003007;28;87374;-36
2022/06/20 13:00:19;;;;;;;;;;;21.70;60.30;;;;;;4984017;28;88162;-36
2022/06/20 13:03:03;;;;;;;;;;;21.70;60.40;;;;;;5001989;28;87092;-36
2022/06/20 13:05:43;;;;;;;;;;;21.70;60.30;;;;;;5001704;28;88031;-36
2022/06/20 13:08:11;;;;;;;;;;;21.80;61.00;;;;;;5001866;28;87821;-36
2022/06/20 13:10:36;;;;;;;;;;;21.80;60.40;;;;;;5002390;28;86799;-36
2022/06/20 13:13:08;;;;;;;;;;;21.90;60.40;;;;;;5002155;28;87296;-36
2022/06/20 13:15:36;;;;;;;;;;;21.90;60.30;;;;;;5002069;28;88888;-36
2022/06/20 13:18:17;;;;;;;;;;;21.90;60.40;;;;;;5004878;28;87164;-36
2022/06/20 13:20:54;;;;;;;;;;;21.90;60.20;;;;;;5001578;28;88165;-36
2022/06/20 13:23:25;;;;;;;;;;;22.00;59.90;;;;;;5002793;28;86274;-36
2022/06/20 13:25:54;;;;;;;;;;;22.00;60.00;;;;;;5002734;28;87056;-36
2022/06/20 13:28:23;;;;;;;;;;;22.00;59.80;;;;;;5005041;28;88422;-36
2022/06/20 13:30:55;;;;;;;;;;;22.10;59.70;;;;;;5004719;28;88007;-36
2022/06/20 13:33:26;;;;;;;;;;;22.10;59.80;;;;;;5005630;28;87467;-36
2022/06/20 13:36:12;;;;;;;;;;;22.10;59.70;;;;;;5005029;28;87335;-36
2022/06/20 13:38:41;;;;;;;;;;;22.10;59.60;;;;;;4963706;28;86996;-36
2022/06/20 13:41:12;;;;;;;;;;;22.10;59.60;;;;;;5007676;28;88834;-36
2022/06/20 13:43:41;;;;;;;;;;;22.10;59.60;;;;;;5005271;28;87035;-36
2022/06/20 13:46:13;;;;;;;;;;;22.20;59.30;;;;;;5005254;28;87100;-36
2022/06/20 13:48:41;;;;;;;;;;;22.20;59.30;;;;;;5005174;28;87457;-36
2022/06/20 13:51:10;;;;;;;;;;;22.20;59.50;;;;;;5019754;28;87087;-36
2022/06/20 13:53:42;;;;;;;;;;;22.20;59.50;;;;;;5004754;28;87456;-36
2022/06/20 13:56:47;;;;;;;;;;;22.30;59.50;;;;;;5003557;28;90497;-36
2022/06/20 13:59:13;;;;;;;;;;;22.30;60.00;;;;;;4923315;28;88853;-36
2022/06/20 14:01:41;;;;;;;;;;;22.30;59.60;;;;;;4924527;28;87499;-36
2022/06/20 14:04:11;;;;;;;;;;;22.30;59.50;;;;;;4965750;28;88190;-36
2022/06/20 14:06:42;;;;;;;;;;;22.40;59.20;;;;;;5004787;28;87652;-36
2022/06/20 14:09:14;;;;;;;;;;;22.40;59.10;;;;;;5004568;28;87167;-36
2022/06/20 14:11:42;;;;;;;;;;;22.40;59.00;;;;;;5005052;28;87138;-36
2022/06/20 14:14:13;;;;;;;;;;;22.50;59.10;;;;;;5005255;28;86844;-36
2022/06/20 14:16:44;;;;;;;;;;;22.50;59.30;;;;;;5004261;28;88399;-36
2022/06/20 14:19:15;;;;;;;;;;;22.50;58.80;;;;;;5004615;28;86983;-36
2022/06/20 14:21:47;;;;;;;;;;;22.60;59.10;;;;;;5004021;28;87844;-36
2022/06/20 14:24:19;;;;;;;;;;;22.60;58.80;;;;;;5004205;28;89593;-36
2022/06/20 14:26:45;;;;;;;;;;;22.60;58.90;;;;;;5007464;28;87187;-36
2022/06/20 14:29:16;;;;;;;;;;;22.70;58.70;;;;;;5003942;28;89385;-39
2022/06/20 14:31:54;;;;;;;;;;;22.70;58.90;;;;;;5003940;28;87155;-36
2022/06/20 14:34:25;;;;;;;;;;;22.70;58.50;;;;;;5004338;28;87346;-36
2022/06/20 14:36:53;;;;;;;;;;;22.70;58.20;;;;;;5003849;28;89323;-36
2022/06/20 14:39:21;;;;;;;;;;;22.80;58.80;;;;;;5004139;28;87692;-36
2022/06/20 14:41:50;;;;;;;;;;;22.80;58.40;;;;;;5004380;28;86889;-36
2022/06/20 14:44:27;;;;;;;;;;;22.80;58.70;;;;;;5003899;28;88187;-36
2022/06/20 14:47:01;;;;;;;;;;;22.80;58.90;;;;;;5006627;28;88078;-36
2022/06/20 14:49:29;;;;;;;;;;;22.80;59.00;;;;;;5003484;28;88185;-36
2022/06/20 14:52:05;;;;;;;;;;;22.80;58.70;;;;;;5004445;28;86887;-36